Time;durP1;ratioP1;P1;durP2;ratioP2;P2;SDS_P1;SDS_P2;PMS_P1;PMS_P2;Temp;Humidity;BMP_temperature;BMP_pressure;BME280_temperature;BME280_humidity;BME280_pressure;Samples;Min_cycle;Max_cycle;Signal;HPM_P1;HPM_P2
2022/09/26 00:01:13;;;;;;;4.67;2.50;;;12.10;99.90;;;;;;5032245;28;20520;-45
2022/09/26 00:03:46;;;;;;;3.03;2.73;;;12.10;99.90;;;;;;5031628;28;20428;-47
2022/09/26 00:06:12;;;;;;;4.00;2.70;;;12.10;99.90;;;;;;5031983;28;20921;-49
2022/09/26 00:08:39;;;;;;;4.40;2.53;;;12.10;99.90;;;;;;5032097;28;20437;-47
2022/09/26 00:11:07;;;;;;;4.23;2.67;;;12.10;99.90;;;;;;5032067;28;20433;-49
2022/09/26 00:13:34;;;;;;;3.60;2.67;;;12.10;99.90;;;;;;5031316;28;20500;-48
2022/09/26 00:16:00;;;;;;;3.10;2.70;;;12.10;99.90;;;;;;5031176;28;20479;-51
2022/09/26 00:18:26;;;;;;;5.13;2.93;;;12.10;99.90;;;;;;5032044;28;20433;-46
2022/09/26 00:20:52;;;;;;;5.87;2.90;;;12.10;99.90;;;;;;5032687;28;20823;-49
2022/09/26 00:23:18;;;;;;;4.23;3.37;;;12.10;99.90;;;;;;5031264;28;20190;-51
2022/09/26 00:25:45;;;;;;;4.37;3.17;;;12.10;99.90;;;;;;5031645;28;20228;-47
2022/09/26 00:28:11;;;;;;;7.10;3.20;;;12.10;99.90;;;;;;5031766;28;20817;-51
2022/09/26 00:30:37;;;;;;;5.83;3.00;;;12.10;99.90;;;;;;5031290;28;20433;-50
2022/09/26 00:33:02;;;;;;;3.40;3.00;;;12.10;99.90;;;;;;5031182;28;20899;-49
2022/09/26 00:35:29;;;;;;;3.10;2.60;;;12.00;99.90;;;;;;5031539;28;20266;-48
2022/09/26 00:37:54;;;;;;;3.70;2.73;;;12.00;99.90;;;;;;5031670;28;20190;-51
2022/09/26 00:40:26;;;;;;;4.07;2.90;;;12.10;99.90;;;;;;5031435;28;20433;-47
2022/09/26 00:42:55;;;;;;;2.90;2.53;;;12.10;99.90;;;;;;5030777;28;20187;-46
2022/09/26 00:45:23;;;;;;;3.43;2.80;;;12.10;99.90;;;;;;5031359;28;20421;-48
2022/09/26 00:47:59;;;;;;;5.70;2.93;;;12.10;99.90;;;;;;5031387;28;20461;-47
2022/09/26 00:50:44;;;;;;;4.60;3.00;;;12.10;99.90;;;;;;5031265;28;20516;-47
2022/09/26 00:53:27;;;;;;;3.50;2.60;;;12.10;99.90;;;;;;5030791;28;20429;-50
2022/09/26 00:56:01;;;;;;;4.40;3.30;;;12.00;99.90;;;;;;5031073;28;20464;-49
2022/09/26 00:58:34;;;;;;;3.40;3.10;;;12.00;99.90;;;;;;5031331;28;20504;-49
2022/09/26 01:01:00;;;;;;;4.03;2.67;;;12.00;99.90;;;;;;5031148;28;20560;-50
2022/09/26 01:03:28;;;;;;;3.53;2.70;;;12.10;99.90;;;;;;5030486;28;20444;-49
2022/09/26 01:05:54;;;;;;;2.90;2.60;;;12.00;99.90;;;;;;5030443;28;20842;-49
2022/09/26 01:08:27;;;;;;;3.27;2.90;;;12.10;99.90;;;;;;5030910;28;20464;-45
2022/09/26 01:10:53;;;;;;;3.67;2.70;;;12.10;99.90;;;;;;5031166;28;20429;-50
2022/09/26 01:13:20;;;;;;;3.80;3.20;;;12.10;99.90;;;;;;5030092;28;20414;-48
2022/09/26 01:15:46;;;;;;;5.30;3.17;;;12.20;99.90;;;;;;5030939;28;20912;-50
2022/09/26 01:18:12;;;;;;;6.67;3.00;;;12.20;99.90;;;;;;5030698;28;20508;-50
2022/09/26 01:20:52;;;;;;;6.03;3.20;;;12.10;99.90;;;;;;5031341;28;20194;-48
2022/09/26 01:23:50;;;;;;;4.70;3.43;;;12.20;99.90;;;;;;5030235;28;20432;-45
2022/09/26 01:26:34;;;;;;;5.40;3.30;;;12.20;99.90;;;;;;5030556;28;20461;-46
2022/09/26 01:29:18;;;;;;;4.03;3.23;;;12.20;99.90;;;;;;5029799;28;20500;-45
2022/09/26 01:35:41;;;;;;;5.03;3.40;;;12.20;99.90;;;;;;5029846;28;20413;-47
2022/09/26 01:38:22;;;;;;;5.03;3.60;;;12.20;99.90;;;;;;5030484;28;20437;-50
2022/09/26 01:41:14;;;;;;;4.60;3.40;;;12.20;99.90;;;;;;5030436;28;20429;-49
2022/09/26 01:44:21;;;;;;;6.80;3.80;;;12.20;99.90;;;;;;5029609;28;20439;-51
2022/09/26 01:47:07;;;;;;;5.93;3.37;;;12.20;99.90;;;;;;5027381;28;20469;-50
2022/09/26 01:49:58;;;;;;;4.97;4.00;;;12.30;99.90;;;;;;5020256;28;20443;-47
2022/09/26 01:52:44;;;;;;;4.20;3.57;;;12.30;99.90;;;;;;5029976;28;20919;-45
2022/09/26 01:55:16;;;;;;;4.93;3.40;;;12.30;99.90;;;;;;5028713;28;20425;-52
2022/09/26 01:58:22;;;;;;;5.90;3.70;;;12.30;99.90;;;;;;5030147;28;20904;-51
2022/09/26 02:00:49;;;;;;;4.17;3.60;;;12.30;99.90;;;;;;5027241;28;20812;-50
2022/09/26 02:03:20;;;;;;;4.53;3.20;;;12.30;99.90;;;;;;5027735;28;20799;-47
2022/09/26 02:06:09;;;;;;;7.57;3.70;;;12.30;99.90;;;;;;5029957;28;20444;-48
2022/09/26 02:08:50;;;;;;;5.70;3.40;;;12.30;99.90;;;;;;5029841;28;20472;-47
2022/09/26 02:11:17;;;;;;;8.00;4.17;;;12.30;99.90;;;;;;5030027;28;20448;-52
2022/09/26 02:13:47;;;;;;;5.53;4.40;;;12.30;99.90;;;;;;5029306;28;20425;-45
2022/09/26 02:16:20;;;;;;;5.20;4.43;;;12.30;99.90;;;;;;5029965;28;20471;-51
2022/09/26 02:18:57;;;;;;;5.40;4.50;;;12.50;99.90;;;;;;5029588;28;20429;-47
2022/09/26 02:21:23;;;;;;;4.97;4.40;;;12.30;99.90;;;;;;5031218;28;20528;-49
2022/09/26 02:23:52;;;;;;;6.33;4.30;;;12.30;99.90;;;;;;5029161;28;20440;-47
2022/09/26 02:26:18;;;;;;;7.13;5.17;;;12.40;99.90;;;;;;5029788;28;20448;-47
2022/09/26 02:28:44;;;;;;;4.97;4.47;;;12.40;99.90;;;;;;5029671;28;20433;-50
2022/09/26 02:31:12;;;;;;;9.50;5.47;;;12.40;99.90;;;;;;5029675;28;20478;-46
2022/09/26 02:33:38;;;;;;;7.33;4.63;;;12.40;99.90;;;;;;5029246;28;21263;-48
2022/09/26 02:36:09;;;;;;;8.93;5.70;;;12.40;99.90;;;;;;5029868;28;20515;-48
2022/09/26 02:38:36;;;;;;;7.53;5.50;;;12.50;99.90;;;;;;5029746;28;20243;-49
2022/09/26 02:41:28;;;;;;;6.70;5.50;;;12.50;99.90;;;;;;5033790;28;20559;-47
2022/09/26 02:44:09;;;;;;;6.23;5.60;;;12.50;99.90;;;;;;5032694;28;20916;-46
2022/09/26 02:47:13;;;;;;;9.03;7.37;;;12.50;99.90;;;;;;5033650;28;20428;-49
2022/09/26 02:49:45;;;;;;;7.53;6.37;;;12.40;99.90;;;;;;5033555;28;20786;-52
2022/09/26 02:52:35;;;;;;;6.80;6.13;;;12.40;99.90;;;;;;5033185;28;20421;-46
2022/09/26 02:55:10;;;;;;;8.13;7.07;;;12.40;99.90;;;;;;5031793;28;20443;-48
2022/09/26 02:58:05;;;;;;;8.13;7.30;;;12.50;99.90;;;;;;5033615;28;20429;-50
2022/09/26 03:01:20;;;;;;;8.10;6.83;;;12.50;99.90;;;;;;5024529;28;20489;-48
2022/09/26 03:04:13;;;;;;;8.30;6.30;;;12.40;99.90;;;;;;5030714;28;20445;-49
2022/09/26 03:06:43;;;;;;;7.80;6.30;;;12.40;99.90;;;;;;5032662;28;20515;-47
2022/09/26 03:09:11;;;;;;;9.00;7.50;;;12.40;99.90;;;;;;5033407;28;20509;-46
2022/09/26 03:11:39;;;;;;;9.83;6.40;;;12.50;99.90;;;;;;5031754;28;20478;-49
2022/09/26 03:14:06;;;;;;;9.87;7.80;;;12.50;99.90;;;;;;5032593;28;20433;-47
2022/09/26 03:16:39;;;;;;;11.03;7.60;;;12.50;99.90;;;;;;5033016;28;20452;-49
2022/09/26 03:19:30;;;;;;;7.10;6.40;;;12.40;99.90;;;;;;5031864;28;20445;-48
2022/09/26 03:21:57;;;;;;;8.70;7.77;;;12.50;99.90;;;;;;5021759;28;20627;-50
2022/09/26 03:24:25;;;;;;;8.27;6.70;;;12.50;99.90;;;;;;5032330;28;21021;-53
2022/09/26 03:26:51;;;;;;;8.10;7.23;;;12.50;99.90;;;;;;5032771;28;20500;-50
2022/09/26 03:29:18;;;;;;;10.10;8.00;;;12.50;99.90;;;;;;5032989;28;20866;-47
2022/09/26 03:31:45;;;;;;;7.50;6.70;;;12.50;99.90;;;;;;5032496;28;20478;-47
2022/09/26 03:34:10;;;;;;;8.20;7.03;;;12.50;99.90;;;;;;5032254;28;20986;-50
2022/09/26 03:36:36;;;;;;;8.40;7.10;;;12.50;99.90;;;;;;5032897;28;20428;-49
2022/09/26 03:39:02;;;;;;;7.67;6.87;;;12.40;99.90;;;;;;5032499;28;20419;-47
2022/09/26 03:41:28;;;;;;;11.40;7.63;;;12.40;99.90;;;;;;5031607;28;20186;-47
2022/09/26 03:43:56;;;;;;;10.47;7.37;;;12.40;99.90;;;;;;5030953;28;20451;-45
2022/09/26 03:46:23;;;;;;;7.30;6.30;;;12.40;99.90;;;;;;5032072;28;20196;-48
2022/09/26 03:48:49;;;;;;;9.57;7.63;;;12.40;99.90;;;;;;5031224;28;20429;-50
2022/09/26 03:51:15;;;;;;;9.40;7.27;;;12.40;99.90;;;;;;5031584;28;20425;-50
2022/09/26 03:53:44;;;;;;;7.90;6.50;;;12.40;99.90;;;;;;5030417;28;20440;-48
2022/09/26 03:56:16;;;;;;;7.57;6.77;;;12.40;99.90;;;;;;5032040;28;20428;-46
2022/09/26 03:58:42;;;;;;;9.63;7.80;;;12.40;99.90;;;;;;5032177;28;20461;-48
2022/09/26 04:01:17;;;;;;;9.13;7.77;;;12.50;99.90;;;;;;5032245;28;20522;-49
2022/09/26 04:03:44;;;;;;;10.17;7.60;;;12.50;99.90;;;;;;5031601;28;20915;-45
2022/09/26 04:06:10;;;;;;;9.20;7.90;;;12.50;99.90;;;;;;5032016;28;20491;-48
2022/09/26 04:08:38;;;;;;;13.80;7.83;;;12.50;99.90;;;;;;5032144;28;20518;-50
2022/09/26 04:11:08;;;;;;;8.57;7.50;;;12.50;99.90;;;;;;5032245;28;20442;-49
2022/09/26 04:13:34;;;;;;;9.60;7.80;;;12.40;99.90;;;;;;5018011;28;20433;-49
2022/09/26 04:16:00;;;;;;;7.10;6.40;;;12.40;99.90;;;;;;5031961;28;20428;-50
2022/09/26 04:18:27;;;;;;;9.67;7.10;;;12.40;99.90;;;;;;5032057;28;20433;-52
2022/09/26 04:20:57;;;;;;;8.70;7.50;;;12.40;99.90;;;;;;5032500;28;20943;-46
2022/09/26 04:23:25;;;;;;;11.10;7.30;;;12.40;99.90;;;;;;5031227;28;20761;-47
2022/09/26 04:25:51;;;;;;;8.90;7.30;;;12.40;99.90;;;;;;5031722;28;20433;-50
2022/09/26 04:28:16;;;;;;;11.20;6.60;;;12.40;99.90;;;;;;5031941;28;20475;-48
2022/09/26 04:30:42;;;;;;;8.33;7.50;;;12.40;99.90;;;;;;5031946;28;20263;-50
2022/09/26 04:33:08;;;;;;;8.47;7.57;;;12.40;99.90;;;;;;5031140;28;20561;-47
2022/09/26 04:35:33;;;;;;;8.03;7.10;;;12.30;99.90;;;;;;5031639;28;20197;-47
2022/09/26 04:37:59;;;;;;;11.60;7.37;;;12.30;99.90;;;;;;5031608;28;20243;-51
2022/09/26 04:40:25;;;;;;;11.53;7.93;;;12.30;99.90;;;;;;5031105;28;20615;-46
2022/09/26 04:42:51;;;;;;;8.33;7.43;;;12.30;99.90;;;;;;5030752;28;20425;-47
2022/09/26 04:45:17;;;;;;;11.03;8.20;;;12.30;99.90;;;;;;5031464;28;20193;-47
2022/09/26 04:47:43;;;;;;;8.77;7.87;;;12.30;99.90;;;;;;5031208;28;20316;-50
2022/09/26 04:50:09;;;;;;;11.63;8.10;;;12.30;99.90;;;;;;5031336;28;20521;-50
2022/09/26 04:52:34;;;;;;;8.67;7.77;;;12.40;99.90;;;;;;5030992;28;20187;-48
2022/09/26 04:55:00;;;;;;;10.47;8.03;;;12.40;99.90;;;;;;5027831;28;20471;-49
2022/09/26 04:57:26;;;;;;;11.53;8.20;;;12.40;99.90;;;;;;5030095;28;20225;-48
2022/09/26 04:59:52;;;;;;;8.57;7.73;;;12.40;99.90;;;;;;5031103;28;20195;-49
2022/09/26 05:02:19;;;;;;;8.83;7.93;;;12.30;99.90;;;;;;5031179;28;20536;-48
2022/09/26 05:04:47;;;;;;;10.23;7.23;;;12.30;99.90;;;;;;5030449;28;20194;-49
2022/09/26 05:07:15;;;;;;;8.87;7.10;;;12.20;99.90;;;;;;5030936;28;20472;-48
2022/09/26 05:09:43;;;;;;;9.73;7.73;;;12.20;99.90;;;;;;5030706;28;20444;-48
2022/09/26 05:12:10;;;;;;;8.37;7.53;;;12.20;99.90;;;;;;5031009;28;20465;-46
2022/09/26 05:14:36;;;;;;;9.43;7.90;;;12.20;99.90;;;;;;5030196;28;20441;-51
2022/09/26 05:17:02;;;;;;;10.87;9.07;;;12.20;99.90;;;;;;5030861;28;20579;-49
2022/09/26 05:19:28;;;;;;;8.23;7.43;;;12.20;99.90;;;;;;5031728;28;20194;-50
2022/09/26 05:21:53;;;;;;;9.37;7.67;;;12.20;99.90;;;;;;5030785;28;20467;-49
2022/09/26 05:27:06;;;;;;;8.40;7.07;;;12.20;99.90;;;;;;5030762;28;20218;-48
2022/09/26 05:29:31;;;;;;;8.57;7.73;;;12.20;99.90;;;;;;5030568;28;20425;-46
2022/09/26 05:31:58;;;;;;;9.30;6.87;;;12.20;99.90;;;;;;5030669;28;20428;-50
2022/09/26 05:34:24;;;;;;;9.17;8.27;;;12.20;99.90;;;;;;5029787;28;20217;-51
2022/09/26 05:36:51;;;;;;;10.03;7.77;;;12.20;99.90;;;;;;5030352;28;20445;-50
2022/09/26 05:42:04;;;;;;;8.90;6.73;;;12.10;99.90;;;;;;5030454;28;20433;-46
2022/09/26 05:44:30;;;;;;;7.40;6.70;;;12.10;99.90;;;;;;5029748;28;20426;-47
2022/09/26 05:46:56;;;;;;;8.63;6.50;;;12.20;99.90;;;;;;5028964;28;20464;-52
2022/09/26 05:49:22;;;;;;;7.30;6.57;;;12.20;99.90;;;;;;5030036;28;21315;-50
2022/09/26 05:51:48;;;;;;;6.90;6.20;;;12.20;99.90;;;;;;5030277;28;20421;-47
2022/09/26 05:54:14;;;;;;;7.67;5.93;;;12.20;99.90;;;;;;5028226;28;20421;-47
2022/09/26 05:56:40;;;;;;;9.00;6.63;;;12.20;99.90;;;;;;5028956;28;20512;-46
2022/09/26 05:59:06;;;;;;;7.83;6.13;;;12.20;99.90;;;;;;5028959;28;20443;-46
2022/09/26 06:01:33;;;;;;;6.70;5.33;;;12.30;99.90;;;;;;5030152;28;20247;-49
2022/09/26 06:03:58;;;;;;;5.73;5.17;;;12.30;99.90;;;;;;5029248;28;20471;-45
2022/09/26 06:06:24;;;;;;;7.80;5.50;;;12.30;99.90;;;;;;5029810;28;20986;-47
2022/09/26 06:08:50;;;;;;;6.97;5.73;;;12.30;99.90;;;;;;5030173;28;20248;-46
2022/09/26 06:11:19;;;;;;;9.33;5.40;;;12.30;99.90;;;;;;5029830;28;20904;-49
2022/09/26 06:13:45;;;;;;;7.90;5.67;;;12.40;99.90;;;;;;5029118;28;20178;-49
2022/09/26 06:16:19;;;;;;;5.63;5.03;;;12.30;99.90;;;;;;5029545;28;20451;-48
2022/09/26 06:18:46;;;;;;;7.77;4.80;;;12.40;99.90;;;;;;5030116;28;20780;-48
2022/09/26 06:21:13;;;;;;;7.50;5.43;;;12.40;99.90;;;;;;5031224;28;20464;-48
2022/09/26 06:23:39;;;;;;;7.80;5.00;;;12.40;99.90;;;;;;5029253;28;20580;-48
2022/09/26 06:26:07;;;;;;;6.37;5.00;;;12.40;99.90;;;;;;5029798;28;20532;-51
2022/09/26 06:28:34;;;;;;;5.97;5.03;;;12.40;99.90;;;;;;5028589;28;20473;-51
2022/09/26 06:31:00;;;;;;;8.20;5.10;;;12.50;99.90;;;;;;5029656;28;20932;-52
2022/09/26 06:33:25;;;;;;;6.70;4.90;;;12.50;99.90;;;;;;5027922;28;20455;-48
2022/09/26 06:36:02;;;;;;;6.10;4.70;;;12.60;99.90;;;;;;5029761;28;20194;-49
2022/09/26 06:38:29;;;;;;;6.70;5.13;;;12.60;99.90;;;;;;5029786;28;20198;-48
2022/09/26 06:40:54;;;;;;;8.40;5.20;;;12.50;99.90;;;;;;5029707;28;20429;-47
2022/09/26 06:43:20;;;;;;;5.63;4.90;;;12.60;99.90;;;;;;5028789;28;20439;-49
2022/09/26 06:45:47;;;;;;;6.30;4.57;;;12.50;99.90;;;;;;5028584;28;20194;-48
2022/09/26 06:48:14;;;;;;;8.20;6.83;;;12.50;99.90;;;;;;5029456;28;20982;-48
2022/09/26 06:50:40;;;;;;;7.43;4.40;;;12.40;99.90;;;;;;5029707;28;20437;-48
2022/09/26 06:53:06;;;;;;;6.60;4.60;;;12.40;99.90;;;;;;5028754;28;20451;-51
2022/09/26 06:55:32;;;;;;;8.40;5.27;;;12.50;99.90;;;;;;5028843;28;20201;-46
2022/09/26 06:57:57;;;;;;;5.33;4.63;;;12.50;99.90;;;;;;5029360;28;20428;-50
2022/09/26 07:00:24;;;;;;;4.80;3.83;;;12.60;99.90;;;;;;5029748;28;20444;-51
2022/09/26 07:02:52;;;;;;;7.27;4.37;;;12.60;99.90;;;;;;5028823;28;20194;-49
2022/09/26 07:05:18;;;;;;;6.60;4.50;;;12.60;99.90;;;;;;5029386;28;20870;-46
2022/09/26 07:07:45;;;;;;;3.60;3.30;;;12.60;99.90;;;;;;5029290;28;20534;-52
2022/09/26 07:10:12;;;;;;;5.90;3.87;;;12.70;99.90;;;;;;5029466;28;20868;-49
2022/09/26 07:12:42;;;;;;;7.03;4.60;;;12.60;99.90;;;;;;5028703;28;20429;-53
2022/09/26 07:15:11;;;;;;;5.47;3.63;;;12.70;99.90;;;;;;5029522;28;20479;-50
2022/09/26 07:17:37;;;;;;;5.73;3.63;;;12.70;99.90;;;;;;5029339;28;21090;-50
2022/09/26 07:20:03;;;;;;;8.33;4.20;;;12.70;99.90;;;;;;5030379;28;20536;-52
2022/09/26 07:22:29;;;;;;;5.07;4.07;;;12.70;99.90;;;;;;5029075;28;20200;-53
2022/09/26 07:24:54;;;;;;;4.00;3.47;;;12.70;99.90;;;;;;5028718;28;20527;-51
2022/09/26 07:27:20;;;;;;;4.57;3.60;;;12.80;99.90;;;;;;5030948;28;20256;-48
2022/09/26 07:29:46;;;;;;;4.63;3.30;;;12.70;99.90;;;;;;5031793;28;20218;-49
2022/09/26 07:32:12;;;;;;;3.47;3.17;;;12.80;99.90;;;;;;5032436;28;20194;-51
2022/09/26 07:34:38;;;;;;;5.13;3.33;;;12.80;99.90;;;;;;5030940;28;20198;-53
2022/09/26 07:37:04;;;;;;;6.03;3.87;;;12.80;99.90;;;;;;5032692;28;20432;-52
2022/09/26 07:39:29;;;;;;;5.03;3.33;;;12.80;99.90;;;;;;5032490;28;20198;-53
2022/09/26 07:41:55;;;;;;;4.23;3.57;;;12.80;99.90;;;;;;5032764;28;20672;-51
2022/09/26 07:44:21;;;;;;;4.33;3.67;;;12.80;99.90;;;;;;5032048;28;20194;-48
2022/09/26 07:52:16;;;;;;;4.80;3.50;;;12.90;99.90;;;;;;5032179;28;20450;-47
2022/09/26 07:54:41;;;;;;;4.93;3.73;;;12.90;99.90;;;;;;5029513;28;21137;-49
2022/09/26 07:57:07;;;;;;;5.77;3.40;;;12.90;99.90;;;;;;5032513;28;20440;-51
2022/09/26 07:59:34;;;;;;;5.53;3.30;;;12.80;99.90;;;;;;5031072;28;20666;-53
2022/09/26 08:02:02;;;;;;;5.30;3.60;;;12.80;99.90;;;;;;5032259;28;20449;-52
2022/09/26 08:04:28;;;;;;;5.17;3.20;;;12.90;99.90;;;;;;5031574;28;20643;-51
2022/09/26 08:06:55;;;;;;;4.20;3.57;;;12.80;99.90;;;;;;5031896;28;21108;-52
2022/09/26 08:09:21;;;;;;;5.63;3.63;;;12.80;99.90;;;;;;5032177;28;20433;-49
2022/09/26 08:11:46;;;;;;;4.60;3.53;;;12.80;99.90;;;;;;5032178;28;20782;-50
2022/09/26 08:14:13;;;;;;;4.40;3.57;;;12.80;99.90;;;;;;5031337;28;20190;-51
2022/09/26 08:16:40;;;;;;;4.70;3.70;;;12.80;99.90;;;;;;5031907;28;20190;-50
2022/09/26 08:19:07;;;;;;;5.10;3.00;;;12.80;99.90;;;;;;5031824;28;20791;-53
2022/09/26 08:21:33;;;;;;;4.20;3.40;;;12.70;99.90;;;;;;5032850;28;20479;-53
2022/09/26 08:23:59;;;;;;;6.63;3.90;;;12.70;99.90;;;;;;5031495;28;20417;-52
2022/09/26 08:26:25;;;;;;;4.70;3.93;;;12.70;99.90;;;;;;5031822;28;20437;-52
2022/09/26 08:28:51;;;;;;;3.60;3.30;;;12.60;99.90;;;;;;5031856;28;20473;-52
2022/09/26 08:31:17;;;;;;;5.50;3.40;;;12.60;99.90;;;;;;5031751;28;20548;-52
2022/09/26 08:33:43;;;;;;;6.13;3.70;;;12.70;99.90;;;;;;5031057;28;20198;-49
2022/09/26 08:36:11;;;;;;;4.33;3.00;;;12.60;99.90;;;;;;5031575;28;20433;-49
2022/09/26 08:38:38;;;;;;;5.27;3.47;;;12.70;99.90;;;;;;5031234;28;20194;-48
2022/09/26 08:41:21;;;;;;;5.67;3.43;;;12.70;99.90;;;;;;5031646;28;20883;-51
2022/09/26 08:43:58;;;;;;;4.40;3.20;;;12.70;99.90;;;;;;5030920;28;20421;-49
2022/09/26 08:49:38;;;;;;;5.10;4.53;;;12.80;99.90;;;;;;5031515;28;20431;-49
2022/09/26 08:52:12;;;;;;;7.30;3.10;;;12.80;99.90;;;;;;5029919;28;20417;-50
2022/09/26 08:54:43;;;;;;;4.93;3.00;;;12.70;99.90;;;;;;5029325;28;20444;-47
2022/09/26 08:57:35;;;;;;;4.40;3.40;;;12.70;99.90;;;;;;5031154;28;20493;-51
2022/09/26 09:00:14;;;;;;;6.20;3.30;;;12.80;99.90;;;;;;5031361;28;20405;-53
2022/09/26 09:02:51;;;;;;;3.90;3.50;;;12.80;99.90;;;;;;5030757;28;20562;-48
2022/09/26 09:05:22;;;;;;;3.47;3.10;;;12.70;99.90;;;;;;5030995;28;20433;-51
2022/09/26 09:07:51;;;;;;;5.83;4.07;;;12.70;99.90;;;;;;5031126;28;20567;-52
2022/09/26 09:10:24;;;;;;;4.40;3.63;;;12.70;99.90;;;;;;5031033;28;20445;-51
2022/09/26 09:13:14;;;;;;;5.50;3.57;;;12.60;99.90;;;;;;5030359;28;20425;-51
2022/09/26 09:16:24;;;;;;;4.33;3.10;;;12.60;99.90;;;;;;5030931;28;20431;-52
2022/09/26 09:18:59;;;;;;;4.07;3.60;;;12.70;99.90;;;;;;5031018;28;20479;-51
2022/09/26 09:21:52;;;;;;;3.40;3.10;;;12.70;99.90;;;;;;5030231;28;20420;-53
2022/09/26 09:24:33;;;;;;;4.27;2.93;;;12.70;99.90;;;;;;5029490;28;20432;-52
2022/09/26 09:27:37;;;;;;;3.70;3.23;;;12.60;99.90;;;;;;5030644;28;20491;-49
2022/09/26 09:30:23;;;;;;;4.63;3.00;;;12.60;99.90;;;;;;5030418;28;20421;-53
2022/09/26 09:32:52;;;;;;;4.27;2.80;;;12.70;99.90;;;;;;5029988;28;20474;-51
2022/09/26 09:35:24;;;;;;;4.33;3.27;;;12.70;99.90;;;;;;5030671;28;20456;-51
2022/09/26 09:37:52;;;;;;;3.53;3.23;;;12.70;99.90;;;;;;5030499;28;20436;-51
2022/09/26 09:40:30;;;;;;;3.47;2.77;;;12.60;99.90;;;;;;5030520;28;20432;-51
2022/09/26 09:43:04;;;;;;;4.33;2.60;;;12.60;99.90;;;;;;5029787;28;20417;-50
2022/09/26 09:45:50;;;;;;;3.23;2.70;;;12.60;99.90;;;;;;5030535;28;20889;-49
2022/09/26 09:48:16;;;;;;;3.00;2.63;;;12.60;99.90;;;;;;5029878;28;20543;-51
2022/09/26 09:50:41;;;;;;;3.63;2.60;;;12.60;99.90;;;;;;5029896;28;21189;-48
2022/09/26 09:53:25;;;;;;;2.63;2.30;;;12.60;99.90;;;;;;5029322;28;20743;-50
2022/09/26 09:56:22;;;;;;;4.37;2.73;;;12.60;99.90;;;;;;5030250;28;20584;-50
2022/09/26 09:59:08;;;;;;;4.50;3.10;;;12.60;99.90;;;;;;5018146;28;20471;-49
2022/09/26 10:01:43;;;;;;;3.57;2.47;;;12.50;99.90;;;;;;5030195;28;20456;-48
2022/09/26 10:04:26;;;;;;;4.33;2.30;;;12.50;99.90;;;;;;5028123;28;20495;-51
2022/09/26 10:06:54;;;;;;;3.13;2.80;;;12.50;99.90;;;;;;5029724;28;20444;-50
2022/09/26 10:09:29;;;;;;;2.50;2.30;;;12.50;99.90;;;;;;5030145;28;20437;-52
2022/09/26 10:11:57;;;;;;;5.93;2.07;;;12.50;99.90;;;;;;5029839;28;20449;-50
2022/09/26 10:14:41;;;;;;;3.93;2.40;;;12.50;99.90;;;;;;5029330;28;20431;-52
2022/09/26 10:17:09;;;;;;;4.67;2.40;;;12.50;99.90;;;;;;5030011;28;20453;-51
2022/09/26 10:19:37;;;;;;;4.40;2.47;;;12.50;99.90;;;;;;5030942;28;20786;-48
2022/09/26 10:22:35;;;;;;;4.00;2.97;;;12.50;99.90;;;;;;5029737;28;20425;-53
2022/09/26 10:25:24;;;;;;;7.80;2.40;;;12.60;99.90;;;;;;5029785;28;20502;-52
2022/09/26 10:27:55;;;;;;;3.90;2.30;;;12.60;99.90;;;;;;5029729;28;20674;-52
2022/09/26 10:30:31;;;;;;;2.40;2.20;;;12.60;99.90;;;;;;5029798;28;20579;-49
2022/09/26 10:32:59;;;;;;;3.57;2.20;;;12.60;99.90;;;;;;5029038;28;20436;-50
2022/09/26 10:35:28;;;;;;;3.23;2.50;;;12.60;99.90;;;;;;5029977;28;20432;-51
2022/09/26 10:38:02;;;;;;;3.03;2.33;;;12.60;99.90;;;;;;5029722;28;20425;-50
2022/09/26 10:40:45;;;;;;;3.20;2.20;;;12.60;99.90;;;;;;5028484;28;20894;-50
2022/09/26 10:43:31;;;;;;;3.07;2.27;;;12.60;99.90;;;;;;5029298;28;20433;-48
2022/09/26 10:46:08;;;;;;;2.17;1.97;;;12.70;99.90;;;;;;5045187;28;20417;-52
2022/09/26 10:48:48;;;;;;;3.57;2.17;;;12.60;99.90;;;;;;5029459;28;20456;-52
2022/09/26 10:51:36;;;;;;;2.97;2.10;;;12.60;99.90;;;;;;5029531;28;20425;-51
2022/09/26 10:54:17;;;;;;;3.70;2.20;;;12.60;99.90;;;;;;5027672;28;20433;-48
2022/09/26 10:56:47;;;;;;;3.10;2.27;;;12.60;99.90;;;;;;5029570;28;20436;-49
2022/09/26 10:59:23;;;;;;;3.40;2.37;;;12.60;99.90;;;;;;5029550;28;20423;-50
2022/09/26 11:01:54;;;;;;;3.37;2.47;;;12.60;99.90;;;;;;5032968;28;20786;-52
2022/09/26 11:07:09;;;;;;;2.50;2.27;;;12.70;99.90;;;;;;5031803;28;21011;-48
2022/09/26 11:09:37;;;;;;;2.80;2.17;;;12.70;99.90;;;;;;5033118;28;20519;-51
2022/09/26 11:12:53;;;;;;;2.83;2.00;;;12.70;99.90;;;;;;5032240;28;20452;-48
2022/09/26 11:15:19;;;;;;;2.40;2.20;;;12.80;99.90;;;;;;5029134;28;20547;-53
2022/09/26 11:17:46;;;;;;;2.83;2.10;;;12.90;99.90;;;;;;5028561;28;20967;-52
2022/09/26 11:20:34;;;;;;;2.30;2.10;;;12.90;99.90;;;;;;5041822;28;20187;-48
2022/09/26 11:23:06;;;;;;;3.63;2.10;;;13.00;99.90;;;;;;5046658;28;20581;-50
2022/09/26 11:25:46;;;;;;;2.67;2.10;;;13.00;99.90;;;;;;5052957;28;20775;-49
2022/09/26 11:28:22;;;;;;;3.60;1.97;;;13.10;99.90;;;;;;5052832;28;20562;-52
2022/09/26 11:30:55;;;;;;;4.50;2.27;;;13.10;99.90;;;;;;5052533;28;20463;-50
2022/09/26 11:33:22;;;;;;;2.00;1.80;;;13.20;99.90;;;;;;5052407;28;20435;-50
2022/09/26 11:36:16;;;;;;;2.10;1.77;;;13.20;99.90;;;;;;5051343;28;20511;-50
2022/09/26 11:39:01;;;;;;;2.57;2.07;;;13.30;99.90;;;;;;5051467;28;20460;-51
2022/09/26 11:41:49;;;;;;;2.73;2.30;;;13.30;99.90;;;;;;5052637;28;20994;-50
2022/09/26 11:44:40;;;;;;;2.50;1.93;;;13.40;99.90;;;;;;5051868;28;20428;-52
2022/09/26 11:47:35;;;;;;;3.00;2.20;;;13.50;99.90;;;;;;5052337;28;20496;-51
2022/09/26 11:50:24;;;;;;;3.00;1.80;;;13.50;99.90;;;;;;5040788;28;20467;-52
2022/09/26 11:53:34;;;;;;;1.97;1.73;;;13.60;99.90;;;;;;5021029;28;20432;-49
2022/09/26 11:56:25;;;;;;;2.50;1.60;;;13.60;99.90;;;;;;5029260;28;20447;-53
2022/09/26 11:59:18;;;;;;;2.10;1.83;;;13.60;99.90;;;;;;5030746;28;20453;-50
2022/09/26 12:02:06;;;;;;;2.27;1.87;;;13.70;99.90;;;;;;5047457;28;21054;-49
2022/09/26 12:04:53;;;;;;;2.10;1.70;;;13.70;99.90;;;;;;5031712;28;20474;-53
2022/09/26 12:07:36;;;;;;;4.20;2.17;;;13.70;99.90;;;;;;5031983;28;20511;-48
2022/09/26 12:10:05;;;;;;;3.17;1.47;;;13.70;99.90;;;;;;5032289;28;20452;-51
2022/09/26 12:13:08;;;;;;;2.40;1.60;;;13.70;99.90;;;;;;5030992;28;20475;-48
2022/09/26 12:15:57;;;;;;;2.37;1.70;;;13.70;99.90;;;;;;5032149;28;20429;-47
2022/09/26 12:18:42;;;;;;;6.60;2.03;;;13.70;99.90;;;;;;5031723;28;20807;-48
2022/09/26 12:21:19;;;;;;;2.33;2.13;;;13.80;99.90;;;;;;5032864;28;20456;-47
2022/09/26 12:23:53;;;;;;;2.40;1.97;;;13.80;99.90;;;;;;5031222;28;20436;-47
2022/09/26 12:26:43;;;;;;;1.63;1.43;;;13.80;99.90;;;;;;5031924;28;20417;-52
2022/09/26 12:29:30;;;;;;;3.13;1.93;;;13.90;99.90;;;;;;5031426;28;20424;-49
2022/09/26 12:32:28;;;;;;;2.90;1.67;;;13.90;99.90;;;;;;5030275;28;20429;-48
2022/09/26 12:35:19;;;;;;;4.43;1.50;;;13.90;99.90;;;;;;5031196;28;20444;-50
2022/09/26 12:38:34;;;;;;;3.90;2.20;;;14.00;99.90;;;;;;5031321;28;20429;-48
2022/09/26 12:41:39;;;;;;;2.53;1.60;;;14.00;99.90;;;;;;5012445;28;20576;-50
2022/09/26 12:44:38;;;;;;;2.53;1.87;;;13.90;99.90;;;;;;5030766;28;20769;-48
2022/09/26 12:47:09;;;;;;;2.43;2.23;;;13.90;99.90;;;;;;5031444;28;20973;-47
2022/09/26 12:49:57;;;;;;;2.90;2.10;;;13.90;99.90;;;;;;5031637;28;20888;-47
2022/09/26 12:53:01;;;;;;;3.70;2.17;;;13.80;99.90;;;;;;5031012;28;20487;-50
2022/09/26 12:55:57;;;;;;;3.20;2.10;;;13.90;99.90;;;;;;5030474;28;20516;-48
2022/09/26 12:59:13;;;;;;;2.80;2.23;;;13.80;99.90;;;;;;5031002;28;20870;-47
2022/09/26 13:02:06;;;;;;;4.30;1.70;;;13.80;99.90;;;;;;5028501;28;20971;-47
2022/09/26 13:04:51;;;;;;;3.60;2.33;;;13.70;99.90;;;;;;5022107;28;20425;-49
2022/09/26 13:07:20;;;;;;;3.63;2.10;;;13.70;99.90;;;;;;5031062;28;20498;-50
2022/09/26 13:10:18;;;;;;;3.77;2.07;;;13.60;99.90;;;;;;5031087;28;20460;-51
2022/09/26 13:13:07;;;;;;;2.30;2.10;;;13.70;99.90;;;;;;5030408;28;20440;-47
2022/09/26 13:15:38;;;;;;;2.73;2.17;;;13.70;99.90;;;;;;5031104;28;20424;-46
2022/09/26 13:18:31;;;;;;;2.40;1.87;;;13.70;99.90;;;;;;5030783;28;20432;-49
2022/09/26 13:21:02;;;;;;;2.60;1.87;;;13.60;99.90;;;;;;5031329;28;20521;-46
2022/09/26 13:23:44;;;;;;;2.23;2.03;;;13.60;99.90;;;;;;5029012;28;20421;-46
2022/09/26 13:26:24;;;;;;;5.43;1.93;;;13.60;99.90;;;;;;5030967;28;20440;-46
2022/09/26 13:28:56;;;;;;;2.80;2.20;;;13.60;99.90;;;;;;5030580;28;20476;-47
2022/09/26 13:31:39;;;;;;;3.50;2.17;;;13.60;99.90;;;;;;5030821;28;20425;-48
2022/09/26 13:34:20;;;;;;;2.20;2.00;;;13.50;99.90;;;;;;5029746;28;20424;-48
2022/09/26 13:36:48;;;;;;;3.23;1.93;;;13.50;99.90;;;;;;5030691;28;20432;-49
2022/09/26 13:39:27;;;;;;;2.43;2.13;;;13.50;99.90;;;;;;5030485;28;20506;-46
2022/09/26 13:42:30;;;;;;;3.73;2.10;;;13.50;99.90;;;;;;5030541;28;20409;-49